Share

Waycross, GA

RAWS WAYCROSS GA US (MOKEG1) Elev 136 ft | 31.25 °N, 82.40 °W | Change Station
Active Advisory: Flood Warning

Current weather conditions updated 49 minutes ago

Overcast
Overcast
58 °F
Feels Like 58 °F
N
8
Wind Variable Wind from North
Gusts 15.0 mph
Sunrise 6:55 AM
Sunset 8:01 PM
Moon Waning Gibbous

Today is forecast to be Warmer than yesterday.

Pressure 30.15 in
Visibility 10.0 miles
Clouds Overcast 1100 ft
Dew Point 54 °F
Humidity 85%
Rainfall 0.14 in
Snow Depth Not available.
UV 4 out of 16
Pollen 7.90 out of 12
Air Quality Not available.
Flu Activity Sporadic
METAR KAMG 201753Z AUTO VRB04KT 10SM OVC011 14/11 A3015 RMK AO2 SLP209 T01440106 10144 20111 58001

More Conditions Fewer Conditions

Pressure 30.15 in
Visibility 10.0 miles
Clouds Overcast 1100 ft
Dew Point 54 °F
Humidity 85%
Rainfall 0.14 in
Snow Depth Not available.
UV 4 out of 16
Pollen 7.90 out of 12
Air Quality Not available.
Flu Activity Sporadic
METAR KAMG 201753Z AUTO VRB04KT 10SM OVC011 14/11 A3015 RMK AO2 SLP209 T01440106 10144 20111 58001

More Conditions Fewer Conditions

10-Day Weather Forecast

Almanac

Astronomy

Apr. 20, 2014 Rise Set
Actual Time 6:55 AM EDT 8:01 PM EDT
Civil Twilight 6:30 AM EDT 8:26 PM EDT
Nautical Twilight 6:00 AM EDT 8:56 PM EDT
Astronomical Twilight 5:30 AM EDT 9:27 PM EDT
Moon 12:32 AM EDT 11:22 AM EDT
Length of Visible Light 13h 55m
Length of Day
13h 05m
Tomorrow will be 1m 45s longer.
Waning Gibbous, 67% of the Moon is Illuminated
Today
Waning Gibbous
Apr 22
Last Quarter
Apr 29
New
May 6
First Quarter
May 14
Full

Today's Extremes

State Highs State Lows

Community

  • Columbine
    Columbine
  • Easter Sunrise
    Easter Sunrise
  • Easter Eve - The Promise - Lake Palestine, TX
    Easter Eve - The Promise - Lake Palestine, TX
  • Happy Easter
    Happy Easter
  • EARLY FOGGY MORNING
    EARLY FOGGY MORNING

WunderPhotos

Upload Photos

1,703,303 photos uploaded!

WunderBlogs® & News

Nearby

Snow Depth

Station Depth Elevation
No new snow has been reported.

Coastal Water Temperatures

Place Temperature
No Stations Reporting

Earthquake Activity

City Distance Mag. Time & Date
No recent earthquake activity has been reported nearby.
Minimum magnitude displayed is 2.5.

Nearby Weather Stations

Station Location Temp. Dew Point Humidity Wind Precip. Elev Updated Type
RAWS WAYCROSS GA, Waycross, GA 58 °F 54 °F 85% North  at  8 mph 0.00 in / hr 136 ft 2:04 PM EDT MADIS
203 N, Mershon, GA 57.4 °F 54 °F 88% NNW  at  3.5 mph 0.00 in / hr 197 ft 2:52 PM EDT Rapid Fire

Show More Stations Show Fewer Stations

What do you think?

We're not finished. Please let us know what you like, what you don't like, and what you are still missing.